sensor_id;sensor_type;location;lat;lon;timestamp;pressure;altitude;pressure_sealevel;temperature;humidity
24486;BME280;13449;49.374;8.584;2024-02-04T00:02:12;101674.97;;;8.42;100.00
24486;BME280;13449;49.374;8.584;2024-02-04T00:04:40;101664.47;;;8.42;100.00
24486;BME280;13449;49.374;8.584;2024-02-04T00:07:10;101659.91;;;8.46;100.00
24486;BME280;13449;49.374;8.584;2024-02-04T00:09:39;101659.06;;;8.45;100.00
24486;BME280;13449;49.374;8.584;2024-02-04T00:12:06;101668.63;;;8.46;100.00
24486;BME280;13449;49.374;8.584;2024-02-04T00:14:32;101674.09;;;8.42;100.00
24486;BME280;13449;49.374;8.584;2024-02-04T00:16:59;101664.47;;;8.42;100.00
24486;BME280;13449;49.374;8.584;2024-02-04T00:19:25;101667.84;;;8.44;100.00
24486;BME280;13449;49.374;8.584;2024-02-04T00:21:53;101676.50;;;8.46;100.00
24486;BME280;13449;49.374;8.584;2024-02-04T00:24:20;101683.84;;;8.39;100.00
24486;BME280;13449;49.374;8.584;2024-02-04T00:26:47;101683.59;;;8.44;100.00
24486;BME280;13449;49.374;8.584;2024-02-04T00:29:13;101691.50;;;8.44;100.00
24486;BME280;13449;49.374;8.584;2024-02-04T00:31:40;101685.16;;;8.48;100.00
24486;BME280;13449;49.374;8.584;2024-02-04T00:34:06;101687.94;;;8.45;100.00
24486;BME280;13449;49.374;8.584;2024-02-04T00:36:35;101680.06;;;8.45;100.00
24486;BME280;13449;49.374;8.584;2024-02-04T00:39:02;101676.66;;;8.43;100.00
24486;BME280;13449;49.374;8.584;2024-02-04T00:41:29;101678.34;;;8.44;100.00
24486;BME280;13449;49.374;8.584;2024-02-04T00:43:58;101673.09;;;8.44;100.00
24486;BME280;13449;49.374;8.584;2024-02-04T00:46:25;101668.16;;;8.38;100.00
24486;BME280;13449;49.374;8.584;2024-02-04T00:48:53;101675.03;;;8.40;100.00
24486;BME280;13449;49.374;8.584;2024-02-04T00:51:20;101677.84;;;8.36;100.00
24486;BME280;13449;49.374;8.584;2024-02-04T00:53:48;101675.34;;;8.33;100.00
24486;BME280;13449;49.374;8.584;2024-02-04T00:56:14;101666.88;;;8.28;100.00
24486;BME280;13449;49.374;8.584;2024-02-04T00:58:41;101662.84;;;8.21;100.00
24486;BME280;13449;49.374;8.584;2024-02-04T01:01:07;101664.53;;;8.22;100.00
24486;BME280;13449;49.374;8.584;2024-02-04T01:03:36;101663.72;;;8.20;100.00
24486;BME280;13449;49.374;8.584;2024-02-04T01:06:03;101674.13;;;8.23;100.00
24486;BME280;13449;49.374;8.584;2024-02-04T01:08:30;101663.88;;;8.17;100.00
24486;BME280;13449;49.374;8.584;2024-02-04T01:10:56;101658.94;;;8.10;100.00
24486;BME280;13449;49.374;8.584;2024-02-04T01:13:25;101665.75;;;8.15;100.00
24486;BME280;13449;49.374;8.584;2024-02-04T01:15:54;101654.69;;;8.08;100.00
24486;BME280;13449;49.374;8.584;2024-02-04T01:18:20;101641.66;;;8.06;100.00
24486;BME280;13449;49.374;8.584;2024-02-04T01:20:50;101659.09;;;8.07;100.00
24486;BME280;13449;49.374;8.584;2024-02-04T01:23:16;101655.69;;;8.05;100.00
24486;BME280;13449;49.374;8.584;2024-02-04T01:25:44;101668.84;;;8.04;100.00
24486;BME280;13449;49.374;8.584;2024-02-04T01:28:11;101674.09;;;8.04;100.00
24486;BME280;13449;49.374;8.584;2024-02-04T01:30:37;101674.94;;;8.04;100.00
24486;BME280;13449;49.374;8.584;2024-02-04T01:33:06;101671.56;;;8.02;100.00
24486;BME280;13449;49.374;8.584;2024-02-04T01:35:33;101676.81;;;8.02;100.00
24486;BME280;13449;49.374;8.584;2024-02-04T01:37:59;101671.56;;;8.02;100.00
24486;BME280;13449;49.374;8.584;2024-02-04T01:40:28;101672.63;;;7.98;100.00
24486;BME280;13449;49.374;8.584;2024-02-04T01:42:55;101677.09;;;7.96;100.00
24486;BME280;13449;49.374;8.584;2024-02-04T01:45:22;101667.44;;;7.97;100.00
24486;BME280;13449;49.374;8.584;2024-02-04T01:47:49;101668.31;;;7.97;100.00
24486;BME280;13449;49.374;8.584;2024-02-04T01:50:16;101666.47;;;7.99;100.00
24486;BME280;13449;49.374;8.584;2024-02-04T01:52:45;101663.91;;;7.98;100.00
24486;BME280;13449;49.374;8.584;2024-02-04T01:55:12;101662.34;;;7.94;100.00
24486;BME280;13449;49.374;8.584;2024-02-04T01:57:39;101661.50;;;7.93;100.00
24486;BME280;13449;49.374;8.584;2024-02-04T02:00:08;101657.25;;;7.91;100.00
24486;BME280;13449;49.374;8.584;2024-02-04T02:02:39;101663.13;;;7.96;100.00
24486;BME280;13449;49.374;8.584;2024-02-04T02:05:07;101658.09;;;7.91;100.00
24486;BME280;13449;49.374;8.584;2024-02-04T02:07:35;101653.81;;;7.89;100.00
24486;BME280;13449;49.374;8.584;2024-02-04T02:10:01;101646.75;;;7.91;100.00
24486;BME280;13449;49.374;8.584;2024-02-04T02:12:50;101654.56;;;7.92;100.00
24486;BME280;13449;49.374;8.584;2024-02-04T02:15:21;101656.25;;;7.93;100.00
24486;BME280;13449;49.374;8.584;2024-02-04T02:18:00;101651.16;;;7.90;100.00
24486;BME280;13449;49.374;8.584;2024-02-04T02:23:11;101655.47;;;7.91;100.00
24486;BME280;13449;49.374;8.584;2024-02-04T02:25:39;101652.97;;;7.88;100.00
24486;BME280;13449;49.374;8.584;2024-02-04T02:28:07;101649.47;;;7.89;100.00
24486;BME280;13449;49.374;8.584;2024-02-04T02:30:33;101640.66;;;7.90;100.00
24486;BME280;13449;49.374;8.584;2024-02-04T02:33:00;101646.03;;;7.87;100.00
24486;BME280;13449;49.374;8.584;2024-02-04T02:35:27;101656.25;;;7.74;100.00
24486;BME280;13449;49.374;8.584;2024-02-04T02:38:05;101650.16;;;7.74;100.00
24486;BME280;13449;49.374;8.584;2024-02-04T02:43:08;101644.91;;;7.74;100.00
24486;BME280;13449;49.374;8.584;2024-02-04T02:45:39;101637.06;;;7.74;100.00
24486;BME280;13449;49.374;8.584;2024-02-04T02:48:12;101643.25;;;7.71;100.00
24486;BME280;13449;49.374;8.584;2024-02-04T02:50:42;101634.53;;;7.71;100.00
24486;BME280;13449;49.374;8.584;2024-02-04T02:53:08;101633.63;;;7.72;100.00
24486;BME280;13449;49.374;8.584;2024-02-04T02:55:37;101636.25;;;7.72;100.00
24486;BME280;13449;49.374;8.584;2024-02-04T02:58:04;101629.31;;;7.71;100.00
24486;BME280;13449;49.374;8.584;2024-02-04T03:00:30;101631.00;;;7.72;100.00
24486;BME280;13449;49.374;8.584;2024-02-04T03:02:58;101631.84;;;7.72;100.00
24486;BME280;13449;49.374;8.584;2024-02-04T03:05:24;101629.19;;;7.74;100.00
24486;BME280;13449;49.374;8.584;2024-02-04T03:07:53;101624.78;;;7.74;100.00
24486;BME280;13449;49.374;8.584;2024-02-04T03:10:20;101631.81;;;7.74;100.00
24486;BME280;13449;49.374;8.584;2024-02-04T03:12:48;101637.16;;;7.71;100.00
24486;BME280;13449;49.374;8.584;2024-02-04T03:15:17;101629.31;;;7.71;100.00
24486;BME280;13449;49.374;8.584;2024-02-04T03:17:44;101627.59;;;7.70;100.00
24486;BME280;13449;49.374;8.584;2024-02-04T03:20:11;101622.22;;;7.73;100.00
24486;BME280;13449;49.374;8.584;2024-02-04T03:22:37;101621.31;;;7.74;100.00
24486;BME280;13449;49.374;8.584;2024-02-04T03:25:04;101618.53;;;7.77;100.00
24486;BME280;13449;49.374;8.584;2024-02-04T03:27:33;101604.50;;;7.78;100.00
24486;BME280;13449;49.374;8.584;2024-02-04T03:30:00;101604.50;;;7.78;100.00
24486;BME280;13449;49.374;8.584;2024-02-04T03:32:28;101607.22;;;7.76;100.00
24486;BME280;13449;49.374;8.584;2024-02-04T03:35:02;101609.75;;;7.78;100.00
24486;BME280;13449;49.374;8.584;2024-02-04T03:37:29;101613.00;;;7.83;100.00
24486;BME280;13449;49.374;8.584;2024-02-04T03:39:56;101614.84;;;7.81;100.00
24486;BME280;13449;49.374;8.584;2024-02-04T03:42:24;101614.06;;;7.79;100.00
24486;BME280;13449;49.374;8.584;2024-02-04T03:44:56;101626.13;;;7.83;100.00
24486;BME280;13449;49.374;8.584;2024-02-04T03:47:25;101620.88;;;7.83;100.00
24486;BME280;13449;49.374;8.584;2024-02-04T03:49:54;101630.28;;;7.87;100.00
24486;BME280;13449;49.374;8.584;2024-02-04T03:52:20;101626.75;;;7.88;100.00
24486;BME280;13449;49.374;8.584;2024-02-04T03:54:49;101626.91;;;7.85;100.00
24486;BME280;13449;49.374;8.584;2024-02-04T03:57:16;101625.03;;;7.87;100.00
24486;BME280;13449;49.374;8.584;2024-02-04T03:59:45;101626.75;;;7.88;100.00
24486;BME280;13449;49.374;8.584;2024-02-04T04:02:15;101620.53;;;7.91;100.00
24486;BME280;13449;49.374;8.584;2024-02-04T04:04:41;101616.22;;;7.90;100.00
24486;BME280;13449;49.374;8.584;2024-02-04T04:07:08;101604.88;;;7.89;100.00
24486;BME280;13449;49.374;8.584;2024-02-04T04:09:35;101595.25;;;7.88;100.00
24486;BME280;13449;49.374;8.584;2024-02-04T04:12:02;101594.22;;;7.92;100.00
24486;BME280;13449;49.374;8.584;2024-02-04T04:14:28;101599.47;;;7.92;100.00
24486;BME280;13449;49.374;8.584;2024-02-04T04:16:55;101589.75;;;7.94;100.00
24486;BME280;13449;49.374;8.584;2024-02-04T04:19:23;101591.59;;;7.92;100.00
24486;BME280;13449;49.374;8.584;2024-02-04T04:21:51;101601.09;;;7.95;100.00
24486;BME280;13449;49.374;8.584;2024-02-04T04:24:17;101604.63;;;7.94;100.00
24486;BME280;13449;49.374;8.584;2024-02-04T04:26:50;101603.72;;;7.95;100.00
24486;BME280;13449;49.374;8.584;2024-02-04T04:29:17;101605.50;;;7.94;100.00
24486;BME280;13449;49.374;8.584;2024-02-04T04:31:43;101602.09;;;7.92;100.00
24486;BME280;13449;49.374;8.584;2024-02-04T04:34:10;101603.63;;;7.96;100.00
24486;BME280;13449;49.374;8.584;2024-02-04T04:36:40;101593.28;;;7.93;100.00
24486;BME280;13449;49.374;8.584;2024-02-04T04:39:06;101601.94;;;7.95;100.00
24486;BME280;13449;49.374;8.584;2024-02-04T04:41:33;101587.13;;;7.94;100.00
24486;BME280;13449;49.374;8.584;2024-02-04T04:43:59;101595.16;;;7.91;100.00
24486;BME280;13449;49.374;8.584;2024-02-04T04:46:26;101602.09;;;7.92;100.00
24486;BME280;13449;49.374;8.584;2024-02-04T04:48:53;101603.78;;;7.93;100.00
24486;BME280;13449;49.374;8.584;2024-02-04T04:51:19;101598.53;;;7.93;100.00
24486;BME280;13449;49.374;8.584;2024-02-04T04:53:46;101607.34;;;7.92;100.00
24486;BME280;13449;49.374;8.584;2024-02-04T04:56:12;101603.78;;;7.93;100.00
24486;BME280;13449;49.374;8.584;2024-02-04T04:58:39;101608.88;;;7.96;100.00
24486;BME280;13449;49.374;8.584;2024-02-04T05:01:05;101612.34;;;7.97;100.00
24486;BME280;13449;49.374;8.584;2024-02-04T05:03:34;101605.34;;;7.97;100.00
24486;BME280;13449;49.374;8.584;2024-02-04T05:06:00;101605.34;;;7.97;100.00
24486;BME280;13449;49.374;8.584;2024-02-04T05:08:27;101602.09;;;7.92;100.00
24486;BME280;13449;49.374;8.584;2024-02-04T05:10:56;101603.94;;;7.90;100.00
24486;BME280;13449;49.374;8.584;2024-02-04T05:13:22;101609.97;;;7.92;100.00
24486;BME280;13449;49.374;8.584;2024-02-04T05:15:49;101602.09;;;7.92;100.00
24486;BME280;13449;49.374;8.584;2024-02-04T05:18:19;101600.38;;;7.91;100.00
24486;BME280;13449;49.374;8.584;2024-02-04T05:20:48;101599.63;;;7.89;100.00
24486;BME280;13449;49.374;8.584;2024-02-04T05:23:14;101597.00;;;7.89;100.00
24486;BME280;13449;49.374;8.584;2024-02-04T05:25:41;101593.56;;;7.87;100.00
24486;BME280;13449;49.374;8.584;2024-02-04T05:28:08;101598.81;;;7.87;100.00
24486;BME280;13449;49.374;8.584;2024-02-04T05:30:34;101595.16;;;7.91;100.00
24486;BME280;13449;49.374;8.584;2024-02-04T05:33:01;101602.88;;;7.94;100.00
24486;BME280;13449;49.374;8.584;2024-02-04T05:35:27;101601.25;;;7.92;100.00
24486;BME280;13449;49.374;8.584;2024-02-04T05:37:54;101597.00;;;7.89;100.00
24486;BME280;13449;49.374;8.584;2024-02-04T05:40:20;101594.38;;;7.89;100.00
24486;BME280;13449;49.374;8.584;2024-02-04T05:42:47;101609.19;;;7.90;100.00
24486;BME280;13449;49.374;8.584;2024-02-04T05:45:14;101603.94;;;7.90;100.00
24486;BME280;13449;49.374;8.584;2024-02-04T05:47:41;101606.59;;;7.89;100.00
24486;BME280;13449;49.374;8.584;2024-02-04T05:50:08;101604.78;;;7.91;100.00
24486;BME280;13449;49.374;8.584;2024-02-04T05:52:34;101607.50;;;7.89;100.00
24486;BME280;13449;49.374;8.584;2024-02-04T05:55:01;101603.22;;;7.87;100.00
24486;BME280;13449;49.374;8.584;2024-02-04T05:57:30;101611.72;;;7.92;100.00
24486;BME280;13449;49.374;8.584;2024-02-04T05:59:57;101617.09;;;7.89;100.00
24486;BME280;13449;49.374;8.584;2024-02-04T06:02:25;101617.09;;;7.89;100.00
24486;BME280;13449;49.374;8.584;2024-02-04T06:04:52;101625.91;;;7.88;100.00
24486;BME280;13449;49.374;8.584;2024-02-04T06:07:21;101629.38;;;7.88;100.00
24486;BME280;13449;49.374;8.584;2024-02-04T06:09:48;101635.53;;;7.87;100.00
24486;BME280;13449;49.374;8.584;2024-02-04T06:12:17;101632.00;;;7.88;100.00
24486;BME280;13449;49.374;8.584;2024-02-04T06:14:43;101629.44;;;7.87;100.00
24486;BME280;13449;49.374;8.584;2024-02-04T06:17:10;101631.22;;;7.86;100.00
24486;BME280;13449;49.374;8.584;2024-02-04T06:19:37;101637.22;;;7.88;100.00
24486;BME280;13449;49.374;8.584;2024-02-04T06:22:03;101640.66;;;7.90;100.00
24486;BME280;13449;49.374;8.584;2024-02-04T06:24:30;101637.13;;;7.91;100.00
24486;BME280;13449;49.374;8.584;2024-02-04T06:26:59;101636.28;;;7.91;100.00
24486;BME280;13449;49.374;8.584;2024-02-04T06:29:28;101633.72;;;7.89;100.00
24486;BME280;13449;49.374;8.584;2024-02-04T06:31:55;101633.84;;;7.86;100.00
24486;BME280;13449;49.374;8.584;2024-02-04T06:34:22;101633.84;;;7.86;100.00
24486;BME280;13449;49.374;8.584;2024-02-04T06:36:49;101624.97;;;7.89;100.00
24486;BME280;13449;49.374;8.584;2024-02-04T06:39:16;101624.06;;;7.90;100.00
24486;BME280;13449;49.374;8.584;2024-02-04T06:42:09;101625.03;;;7.87;100.00
24486;BME280;13449;49.374;8.584;2024-02-04T06:44:36;101630.19;;;7.90;100.00
24486;BME280;13449;49.374;8.584;2024-02-04T06:47:06;101625.91;;;7.88;100.00
24486;BME280;13449;49.374;8.584;2024-02-04T06:49:32;101619.78;;;7.87;100.00
24486;BME280;13449;49.374;8.584;2024-02-04T06:51:59;101625.13;;;7.86;100.00
24486;BME280;13449;49.374;8.584;2024-02-04T06:54:25;101622.78;;;7.79;100.00
24486;BME280;13449;49.374;8.584;2024-02-04T06:56:52;101616.84;;;7.76;100.00
24486;BME280;13449;49.374;8.584;2024-02-04T06:59:21;101604.66;;;7.75;100.00
24486;BME280;13449;49.374;8.584;2024-02-04T07:01:48;101613.50;;;7.72;100.00
24486;BME280;13449;49.374;8.584;2024-02-04T07:04:17;101618.81;;;7.71;100.00
24486;BME280;13449;49.374;8.584;2024-02-04T07:06:43;101615.41;;;7.69;100.00
24486;BME280;13449;49.374;8.584;2024-02-04T07:09:10;101619.81;;;7.68;100.00
24486;BME280;13449;49.374;8.584;2024-02-04T07:11:37;101629.31;;;7.71;100.00
24486;BME280;13449;49.374;8.584;2024-02-04T07:14:06;101630.66;;;7.79;100.00
24486;BME280;13449;49.374;8.584;2024-02-04T07:16:34;101636.69;;;7.81;100.00
24486;BME280;13449;49.374;8.584;2024-02-04T07:19:01;101629.03;;;7.77;100.00
24486;BME280;13449;49.374;8.584;2024-02-04T07:21:28;101629.19;;;7.74;100.00
24486;BME280;13449;49.374;8.584;2024-02-04T07:23:54;101636.25;;;7.72;100.00
24486;BME280;13449;49.374;8.584;2024-02-04T07:26:21;101635.28;;;7.74;100.00
24486;BME280;13449;49.374;8.584;2024-02-04T07:28:49;101637.94;;;7.73;100.00
24486;BME280;13449;49.374;8.584;2024-02-04T07:31:16;101636.97;;;7.75;100.00
24486;BME280;13449;49.374;8.584;2024-02-04T07:33:42;101637.06;;;7.74;100.00
24486;BME280;13449;49.374;8.584;2024-02-04T07:36:10;101637.94;;;7.73;100.00
24486;BME280;13449;49.374;8.584;2024-02-04T07:38:37;101628.34;;;7.73;100.00
24486;BME280;13449;49.374;8.584;2024-02-04T07:41:04;101620.59;;;7.70;100.00
24486;BME280;13449;49.374;8.584;2024-02-04T07:43:30;101618.81;;;7.71;100.00
24486;BME280;13449;49.374;8.584;2024-02-04T07:45:57;101634.44;;;7.74;100.00
24486;BME280;13449;49.374;8.584;2024-02-04T07:48:27;101629.19;;;7.74;100.00
24486;BME280;13449;49.374;8.584;2024-02-04T07:50:59;101628.38;;;7.72;100.00
24486;BME280;13449;49.374;8.584;2024-02-04T07:53:25;101623.22;;;7.70;100.00
24486;BME280;13449;49.374;8.584;2024-02-04T07:55:54;101622.34;;;7.70;100.00
24486;BME280;13449;49.374;8.584;2024-02-04T07:58:21;101625.63;;;7.75;100.00
24486;BME280;13449;49.374;8.584;2024-02-04T08:00:47;101618.53;;;7.77;100.00
24486;BME280;13449;49.374;8.584;2024-02-04T08:03:14;101621.25;;;7.75;100.00
24486;BME280;13449;49.374;8.584;2024-02-04T08:05:41;101627.34;;;7.76;100.00
24486;BME280;13449;49.374;8.584;2024-02-04T08:08:07;101621.16;;;7.77;100.00
24486;BME280;13449;49.374;8.584;2024-02-04T08:10:34;101619.31;;;7.79;100.00
24486;BME280;13449;49.374;8.584;2024-02-04T08:13:03;101615.56;;;7.85;100.00
24486;BME280;13449;49.374;8.584;2024-02-04T08:15:30;101617.97;;;7.89;100.00
24486;BME280;13449;49.374;8.584;2024-02-04T08:17:56;101613.44;;;7.93;100.00
24486;BME280;13449;49.374;8.584;2024-02-04T08:20:23;101607.03;;;7.98;100.00
24486;BME280;13449;49.374;8.584;2024-02-04T08:22:54;101607.88;;;7.99;100.00
24486;BME280;13449;49.374;8.584;2024-02-04T08:25:21;101612.97;;;8.02;100.00
24486;BME280;13449;49.374;8.584;2024-02-04T08:27:48;101616.38;;;8.04;100.00
24486;BME280;13449;49.374;8.584;2024-02-04T08:30:14;101616.25;;;8.07;100.00
24486;BME280;13449;49.374;8.584;2024-02-04T08:32:42;101617.03;;;8.09;100.00
24486;BME280;13449;49.374;8.584;2024-02-04T08:35:14;101616.81;;;8.14;100.00
24486;BME280;13449;49.374;8.584;2024-02-04T08:37:40;101608.00;;;8.15;100.00
24486;BME280;13449;49.374;8.584;2024-02-04T08:40:08;101609.88;;;8.30;100.00
24486;BME280;13449;49.374;8.584;2024-02-04T08:42:34;101609.53;;;8.19;100.00
24486;BME280;13449;49.374;8.584;2024-02-04T08:45:01;101609.53;;;8.19;100.00
24486;BME280;13449;49.374;8.584;2024-02-04T08:47:28;101604.28;;;8.19;100.00
24486;BME280;13449;49.374;8.584;2024-02-04T08:49:54;101605.03;;;8.22;100.00
24486;BME280;13449;49.374;8.584;2024-02-04T08:52:21;101608.34;;;8.26;100.00
24486;BME280;13449;49.374;8.584;2024-02-04T08:54:48;101594.22;;;8.28;100.00
24486;BME280;13449;49.374;8.584;2024-02-04T08:57:14;101601.84;;;8.33;100.00
24486;BME280;13449;49.374;8.584;2024-02-04T08:59:41;101603.28;;;8.40;100.00
24486;BME280;13449;49.374;8.584;2024-02-04T09:02:07;101606.53;;;8.45;100.00
24486;BME280;13449;49.374;8.584;2024-02-04T09:04:36;101596.81;;;8.47;100.00
24486;BME280;13449;49.374;8.584;2024-02-04T09:07:07;101592.19;;;8.52;100.00
24486;BME280;13449;49.374;8.584;2024-02-04T09:09:36;101595.44;;;8.57;100.00
24486;BME280;13449;49.374;8.584;2024-02-04T09:12:03;101601.28;;;8.62;100.00
24486;BME280;13449;49.374;8.584;2024-02-04T09:14:30;101601.00;;;8.68;100.00
24486;BME280;13449;49.374;8.584;2024-02-04T09:16:56;101596.34;;;8.74;100.00
24486;BME280;13449;49.374;8.584;2024-02-04T09:19:23;101601.44;;;8.77;100.00
24486;BME280;13449;49.374;8.584;2024-02-04T09:21:53;101600.44;;;8.79;100.00
24486;BME280;13449;49.374;8.584;2024-02-04T09:24:20;101590.59;;;8.83;100.00
24486;BME280;13449;49.374;8.584;2024-02-04T09:26:46;101589.06;;;8.79;100.00
24486;BME280;13449;49.374;8.584;2024-02-04T09:29:13;101587.09;;;8.84;100.00
24486;BME280;13449;49.374;8.584;2024-02-04T09:31:39;101585.22;;;8.86;100.00
24486;BME280;13449;49.374;8.584;2024-02-04T09:34:06;101570.31;;;8.86;100.00
24486;BME280;13449;49.374;8.584;2024-02-04T09:36:33;101570.06;;;8.91;100.00
24486;BME280;13449;49.374;8.584;2024-02-04T09:39:00;101577.19;;;8.89;100.00
24486;BME280;13449;49.374;8.584;2024-02-04T09:41:27;101571.84;;;8.90;100.00
24486;BME280;13449;49.374;8.584;2024-02-04T09:43:54;101562.84;;;8.94;100.00
24486;BME280;13449;49.374;8.584;2024-02-04T09:46:23;101566.78;;;9.03;100.00
24486;BME280;13449;49.374;8.584;2024-02-04T09:48:51;101568.00;;;9.13;100.00
24486;BME280;13449;49.374;8.584;2024-02-04T09:51:19;101558.91;;;9.03;100.00
24486;BME280;13449;49.374;8.584;2024-02-04T09:53:48;101559.34;;;9.11;100.00
24486;BME280;13449;49.374;8.584;2024-02-04T09:56:22;101556.22;;;9.20;100.00
24486;BME280;13449;49.374;8.584;2024-02-04T09:58:52;101554.63;;;9.18;100.00
24486;BME280;13449;49.374;8.584;2024-02-04T10:01:23;101558.09;;;9.18;100.00
24486;BME280;13449;49.374;8.584;2024-02-04T10:03:50;101555.31;;;9.21;100.00
24486;BME280;13449;49.374;8.584;2024-02-04T10:06:17;101561.56;;;9.19;100.00
24486;BME280;13449;49.374;8.584;2024-02-04T10:08:46;101558.41;;;9.12;100.00
24486;BME280;13449;49.374;8.584;2024-02-04T10:11:14;101557.47;;;9.13;100.00
24486;BME280;13449;49.374;8.584;2024-02-04T10:13:45;101557.47;;;9.13;100.00
24486;BME280;13449;49.374;8.584;2024-02-04T10:16:15;101542.72;;;9.11;100.00
24486;BME280;13449;49.374;8.584;2024-02-04T10:18:44;101549.88;;;9.24;100.00
24486;BME280;13449;49.374;8.584;2024-02-04T10:21:18;101561.50;;;9.20;100.00
24486;BME280;13449;49.374;8.584;2024-02-04T10:23:51;101558.41;;;9.12;100.00
24486;BME280;13449;49.374;8.584;2024-02-04T10:26:18;101553.22;;;9.11;100.00
24486;BME280;13449;49.374;8.584;2024-02-04T10:28:48;101566.91;;;9.17;100.00
24486;BME280;13449;49.374;8.584;2024-02-04T10:31:15;101562.59;;;9.16;100.00
24486;BME280;13449;49.374;8.584;2024-02-04T10:33:43;101560.97;;;9.29;100.00
24486;BME280;13449;49.374;8.584;2024-02-04T10:36:10;101577.69;;;9.28;100.00
24486;BME280;13449;49.374;8.584;2024-02-04T10:38:37;101576.84;;;9.28;100.00
24486;BME280;13449;49.374;8.584;2024-02-04T10:41:04;101579.56;;;9.26;100.00
24486;BME280;13449;49.374;8.584;2024-02-04T10:43:34;101576.75;;;9.29;100.00
24486;BME280;13449;49.374;8.584;2024-02-04T10:46:08;101577.56;;;9.32;100.00
24486;BME280;13449;49.374;8.584;2024-02-04T10:48:37;101574.66;;;9.36;100.00
24486;BME280;13449;49.374;8.584;2024-02-04T10:51:15;101577.97;;;9.40;100.00
24486;BME280;13449;49.374;8.584;2024-02-04T10:53:45;101566.53;;;9.41;100.00
24486;BME280;13449;49.374;8.584;2024-02-04T10:56:21;101566.22;;;9.47;100.00
24486;BME280;13449;49.374;8.584;2024-02-04T10:58:48;101555.50;;;9.50;100.00
24486;BME280;13449;49.374;8.584;2024-02-04T11:01:18;101560.25;;;9.59;100.00
24486;BME280;13449;49.374;8.584;2024-02-04T11:03:45;101564.25;;;9.66;100.00
24486;BME280;13449;49.374;8.584;2024-02-04T11:06:13;101553.28;;;9.74;100.00
24486;BME280;13449;49.374;8.584;2024-02-04T11:08:40;101541.72;;;9.92;100.00
24486;BME280;13449;49.374;8.584;2024-02-04T11:11:07;101530.03;;;9.98;100.00
24486;BME280;13449;49.374;8.584;2024-02-04T11:13:37;101519.31;;;10.01;100.00
24486;BME280;13449;49.374;8.584;2024-02-04T11:16:09;101523.03;;;10.12;100.00
24486;BME280;13449;49.374;8.584;2024-02-04T11:27:14;101496.84;;;10.25;100.00
24486;BME280;13449;49.374;8.584;2024-02-04T11:29:45;101501.78;;;10.31;100.00
24486;BME280;13449;49.374;8.584;2024-02-04T11:32:14;101498.28;;;10.31;100.00
24486;BME280;13449;49.374;8.584;2024-02-04T11:34:41;101500.34;;;10.40;100.00
24486;BME280;13449;49.374;8.584;2024-02-04T11:37:18;101493.13;;;10.29;100.00
24486;BME280;13449;49.374;8.584;2024-02-04T11:39:53;101495.34;;;10.21;100.00
24486;BME280;13449;49.374;8.584;2024-02-04T11:42:25;101494.69;;;10.02;100.00
24486;BME280;13449;49.374;8.584;2024-02-04T11:45:06;101481.72;;;9.99;100.00
24486;BME280;13449;49.374;8.584;2024-02-04T11:47:34;101482.47;;;10.01;100.00
24486;BME280;13449;49.374;8.584;2024-02-04T11:50:05;101488.09;;;9.95;100.00
24486;BME280;13449;49.374;8.584;2024-02-04T11:52:36;101482.66;;;9.98;100.00
24486;BME280;13449;49.374;8.584;2024-02-04T11:55:03;101482.03;;;9.93;100.00
24486;BME280;13449;49.374;8.584;2024-02-04T11:57:33;101486.91;;;9.84;100.00
24486;BME280;13449;49.374;8.584;2024-02-04T12:00:00;101487.09;;;9.81;100.00
24486;BME280;13449;49.374;8.584;2024-02-04T12:02:30;101498.66;;;9.79;100.00
24486;BME280;13449;49.374;8.584;2024-02-04T12:04:59;101484.03;;;9.73;100.00
24486;BME280;13449;49.374;8.584;2024-02-04T12:07:27;101484.88;;;9.74;100.00
24486;BME280;13449;49.374;8.584;2024-02-04T12:09:53;101482.16;;;9.75;100.00
24486;BME280;13449;49.374;8.584;2024-02-04T12:12:23;101480.84;;;9.68;100.00
24486;BME280;13449;49.374;8.584;2024-02-04T12:14:52;101474.88;;;9.80;100.00
24486;BME280;13449;49.374;8.584;2024-02-04T12:17:19;101486.72;;;9.87;100.00
24486;BME280;13449;49.374;8.584;2024-02-04T12:19:48;101489.47;;;9.86;100.00
24486;BME280;13449;49.374;8.584;2024-02-04T12:22:17;101501.69;;;9.87;100.00
24486;BME280;13449;49.374;8.584;2024-02-04T12:24:45;101503.09;;;9.93;100.00
24486;BME280;13449;49.374;8.584;2024-02-04T12:27:11;101494.69;;;10.02;100.00
24486;BME280;13449;49.374;8.584;2024-02-04T12:29:38;101487.34;;;10.07;100.00
24486;BME280;13449;49.374;8.584;2024-02-04T12:32:05;101486.69;;;10.03;100.00
24486;BME280;13449;49.374;8.584;2024-02-04T12:34:32;101484.38;;;10.13;100.00
24486;BME280;13449;49.374;8.584;2024-02-04T12:37:01;101472.53;;;10.20;100.00
24486;BME280;13449;49.374;8.584;2024-02-04T12:39:28;101469.16;;;10.18;100.00
24486;BME280;13449;49.374;8.584;2024-02-04T12:41:55;101456.59;;;10.23;100.00
24486;BME280;13449;49.374;8.584;2024-02-04T12:44:22;101450.97;;;10.29;100.00
24486;BME280;13449;49.374;8.584;2024-02-04T12:46:52;101458.31;;;10.38;100.00
24486;BME280;13449;49.374;8.584;2024-02-04T12:49:20;101458.28;;;10.24;100.00
24486;BME280;13449;49.374;8.584;2024-02-04T12:51:50;101454.31;;;10.17;100.00
24486;BME280;13449;49.374;8.584;2024-02-04T12:54:21;101465.53;;;10.05;100.00
24486;BME280;13449;49.374;8.584;2024-02-04T12:56:50;101455.78;;;10.07;100.00
24486;BME280;13449;49.374;8.584;2024-02-04T12:59:26;101453.13;;;10.07;100.00
24486;BME280;13449;49.374;8.584;2024-02-04T13:04:24;101455.78;;;10.07;100.00
24486;BME280;13449;49.374;8.584;2024-02-04T13:06:51;101454.75;;;10.09;100.00
24486;BME280;13449;49.374;8.584;2024-02-04T13:09:18;101455.78;;;10.07;100.00
24486;BME280;13449;49.374;8.584;2024-02-04T13:11:45;101444.50;;;10.05;100.00